Time;durP1;ratioP1;P1;durP2;ratioP2;P2;SDS_P1;SDS_P2;PMS_P1;PMS_P2;Temp;Humidity;BMP_temperature;BMP_pressure;BME280_temperature;BME280_humidity;BME280_pressure;Samples;Min_cycle;Max_cycle;Signal;HPM_P1;HPM_P2
2021/09/27 00:00:17;;;;;;;12.80;11.70;;;19.70;99.90;;;;;;5032531;28;20877;-68
2021/09/27 00:02:43;;;;;;;13.70;12.60;;;19.60;99.90;;;;;;5031809;28;20684;-68
2021/09/27 00:05:12;;;;;;;13.43;12.23;;;19.60;99.90;;;;;;5032503;28;20409;-68
2021/09/27 00:07:39;;;;;;;14.70;13.40;;;19.60;99.90;;;;;;5032823;28;20175;-75
2021/09/27 00:10:06;;;;;;;14.37;13.27;;;19.50;99.90;;;;;;5032284;28;20417;-68
2021/09/27 00:12:32;;;;;;;14.67;13.37;;;19.50;99.90;;;;;;5032370;28;20755;-68
2021/09/27 00:14:58;;;;;;;14.97;13.57;;;19.50;99.90;;;;;;5031623;28;20551;-68
2021/09/27 00:17:24;;;;;;;14.83;13.57;;;19.50;99.90;;;;;;5032283;28;20266;-68
2021/09/27 00:19:49;;;;;;;14.87;13.53;;;19.50;99.90;;;;;;5031458;28;20501;-68
2021/09/27 00:22:15;;;;;;;13.97;12.87;;;19.50;99.90;;;;;;5042035;28;20662;-68
2021/09/27 00:24:41;;;;;;;14.13;12.87;;;19.40;99.90;;;;;;5051293;28;20177;-69
2021/09/27 00:27:06;;;;;;;13.50;12.40;;;19.40;99.90;;;;;;5052321;28;20170;-67
2021/09/27 00:29:32;;;;;;;14.47;13.13;;;19.40;99.90;;;;;;5051760;28;20182;-68
2021/09/27 00:31:58;;;;;;;15.13;13.63;;;19.40;99.90;;;;;;5051009;28;20181;-68
2021/09/27 00:34:23;;;;;;;13.97;12.60;;;19.40;99.90;;;;;;5052123;28;20312;-68
2021/09/27 00:36:49;;;;;;;13.97;12.60;;;19.40;99.90;;;;;;5046204;28;20224;-68
2021/09/27 00:39:15;;;;;;;14.57;13.37;;;19.30;99.90;;;;;;5036292;28;20192;-68
2021/09/27 00:41:42;;;;;;;14.40;13.20;;;19.30;99.90;;;;;;5035434;28;20178;-75
2021/09/27 00:44:07;;;;;;;14.10;12.73;;;19.20;99.90;;;;;;5036177;28;20174;-68
2021/09/27 00:46:34;;;;;;;13.60;12.50;;;19.20;99.90;;;;;;5035721;28;20540;-68
2021/09/27 00:49:01;;;;;;;13.60;12.40;;;19.20;99.90;;;;;;5017494;28;20422;-68
2021/09/27 00:51:31;;;;;;;12.83;11.70;;;19.20;99.90;;;;;;5035880;28;20782;-68
2021/09/27 00:54:00;;;;;;;13.97;12.67;;;19.10;99.90;;;;;;5035187;28;20872;-68
2021/09/27 00:56:34;;;;;;;13.60;12.37;;;19.00;99.90;;;;;;5044946;28;20473;-68
2021/09/27 00:59:01;;;;;;;13.30;12.10;;;19.00;99.90;;;;;;5055075;28;21009;-68
2021/09/27 01:01:27;;;;;;;14.00;12.90;;;19.00;99.90;;;;;;5037960;28;20411;-68
2021/09/27 01:03:54;;;;;;;13.53;12.33;;;19.00;99.90;;;;;;5054928;28;20751;-68
2021/09/27 01:06:32;;;;;;;13.47;12.37;;;19.00;99.90;;;;;;5055706;28;20447;-68
2021/09/27 01:09:07;;;;;;;13.63;12.53;;;19.00;99.90;;;;;;5054839;28;20495;-68
2021/09/27 01:12:13;;;;;;;13.40;12.30;;;18.90;99.90;;;;;;5055623;28;20801;-68
2021/09/27 01:14:48;;;;;;;13.83;12.63;;;18.90;99.90;;;;;;5055257;28;20483;-74
2021/09/27 01:17:38;;;;;;;13.90;12.77;;;18.90;99.90;;;;;;5021432;28;20521;-68
2021/09/27 01:20:07;;;;;;;13.50;12.40;;;18.90;99.90;;;;;;5034932;28;20402;-68
2021/09/27 01:23:00;;;;;;;13.20;12.00;;;18.90;99.90;;;;;;5035472;28;20412;-68
2021/09/27 01:25:44;;;;;;;14.67;13.40;;;18.80;99.90;;;;;;5035236;28;20476;-68
2021/09/27 01:28:42;;;;;;;15.43;14.03;;;18.80;99.90;;;;;;5035556;28;20746;-68
2021/09/27 01:31:50;;;;;;;13.77;12.67;;;18.80;99.90;;;;;;5035140;28;20397;-68
2021/09/27 01:34:43;;;;;;;14.27;12.87;;;18.80;99.90;;;;;;5034624;28;20471;-68
2021/09/27 01:37:31;;;;;;;14.10;12.70;;;18.80;99.90;;;;;;5035248;28;20440;-67
2021/09/27 01:40:29;;;;;;;13.73;12.37;;;18.70;99.90;;;;;;5034385;28;20398;-68
2021/09/27 01:43:26;;;;;;;13.83;12.63;;;18.70;99.90;;;;;;4971250;28;20438;-68
2021/09/27 01:46:13;;;;;;;13.37;12.37;;;18.70;99.90;;;;;;5032041;28;20488;-68
2021/09/27 01:48:59;;;;;;;13.40;12.27;;;18.70;99.90;;;;;;5034907;28;20428;-68
2021/09/27 01:51:38;;;;;;;14.27;13.03;;;18.70;99.90;;;;;;5034906;28;20458;-68
2021/09/27 01:54:33;;;;;;;14.60;13.30;;;18.70;99.90;;;;;;5033929;28;21080;-67
2021/09/27 01:57:40;;;;;;;14.27;12.97;;;18.70;99.90;;;;;;5052947;28;20474;-68
2021/09/27 02:00:10;;;;;;;12.60;11.50;;;18.60;99.90;;;;;;4937428;29;20932;-68
2021/09/27 02:02:54;;;;;;;14.33;13.13;;;18.50;99.90;;;;;;5040062;28;20424;-68
2021/09/27 02:05:32;;;;;;;13.17;12.00;;;18.60;99.90;;;;;;5036938;28;20431;-68
2021/09/27 02:08:24;;;;;;;13.80;12.50;;;18.60;99.90;;;;;;5053799;28;20776;-68
2021/09/27 02:11:00;;;;;;;13.60;12.30;;;18.60;99.90;;;;;;5053587;28;20885;-68
2021/09/27 02:13:30;;;;;;;13.83;12.53;;;18.50;99.90;;;;;;5054344;28;20439;-68
2021/09/27 02:16:13;;;;;;;14.43;13.23;;;18.50;99.90;;;;;;5052889;28;20554;-68
2021/09/27 02:18:53;;;;;;;13.47;12.37;;;18.50;99.90;;;;;;5054356;28;20412;-68
2021/09/27 02:21:23;;;;;;;13.97;12.70;;;18.50;99.90;;;;;;5036800;28;20534;-68
2021/09/27 02:24:01;;;;;;;15.37;13.90;;;18.50;99.90;;;;;;5053111;28;20419;-68
2021/09/27 02:26:28;;;;;;;15.50;14.10;;;18.50;99.90;;;;;;5053985;28;20400;-68
2021/09/27 02:28:54;;;;;;;15.13;13.80;;;18.50;99.90;;;;;;5053297;28;20412;-68
2021/09/27 02:31:47;;;;;;;14.07;12.80;;;18.50;99.90;;;;;;5054396;28;20412;-68
2021/09/27 02:34:32;;;;;;;15.63;14.10;;;18.50;99.90;;;;;;5050133;28;20452;-67
2021/09/27 02:37:10;;;;;;;16.00;14.60;;;18.50;99.90;;;;;;5033308;28;20752;-68
2021/09/27 02:40:05;;;;;;;15.40;14.00;;;18.50;99.90;;;;;;5034130;28;20866;-68
2021/09/27 02:42:56;;;;;;;14.20;13.10;;;18.50;99.90;;;;;;5033860;28;20508;-68
2021/09/27 02:45:24;;;;;;;14.20;12.97;;;18.50;99.90;;;;;;5033974;28;20401;-68
2021/09/27 02:47:58;;;;;;;13.87;12.67;;;18.50;99.90;;;;;;5033156;28;20896;-68
2021/09/27 02:50:32;;;;;;;13.60;12.47;;;18.50;99.90;;;;;;5033825;28;20421;-68
2021/09/27 02:52:58;;;;;;;14.93;13.57;;;18.40;99.90;;;;;;5032923;28;20435;-68
2021/09/27 02:55:57;;;;;;;14.57;13.27;;;18.40;99.90;;;;;;5033162;28;20518;-68
2021/09/27 02:58:36;;;;;;;14.00;12.67;;;18.40;99.90;;;;;;5052923;28;20846;-68
2021/09/27 03:01:10;;;;;;;17.33;15.57;;;18.40;99.90;;;;;;5050823;28;20412;-69
2021/09/27 03:04:04;;;;;;;15.80;14.20;;;18.50;99.90;;;;;;5033393;28;20401;-66
2021/09/27 03:06:56;;;;;;;17.10;15.10;;;18.50;99.90;;;;;;5033507;28;20409;-66
2021/09/27 03:09:28;;;;;;;15.63;14.23;;;18.50;99.90;;;;;;5033733;28;20512;-66
2021/09/27 03:12:25;;;;;;;16.00;14.33;;;18.50;99.90;;;;;;5032644;28;20412;-66
2021/09/27 03:15:00;;;;;;;15.03;13.63;;;18.60;99.90;;;;;;5027288;28;20986;-66
2021/09/27 03:17:56;;;;;;;16.00;14.37;;;18.50;99.90;;;;;;5053240;28;20473;-66
2021/09/27 03:21:03;;;;;;;14.13;12.73;;;18.60;99.90;;;;;;5053243;28;20415;-66
2021/09/27 03:23:59;;;;;;;16.27;14.87;;;18.60;99.90;;;;;;5053028;28;20412;-66
2021/09/27 03:26:42;;;;;;;15.63;14.23;;;18.60;99.90;;;;;;5053052;28;20408;-66
2021/09/27 03:29:32;;;;;;;16.23;14.70;;;18.50;99.90;;;;;;5051599;28;20456;-65
2021/09/27 03:32:30;;;;;;;14.37;13.10;;;18.50;99.90;;;;;;5052002;28;20419;-66
2021/09/27 03:35:22;;;;;;;15.13;13.73;;;18.50;99.90;;;;;;5034196;28;20455;-66
2021/09/27 03:38:12;;;;;;;16.47;14.90;;;18.50;99.90;;;;;;5052677;28;20384;-72
2021/09/27 03:40:53;;;;;;;16.00;14.47;;;18.50;99.90;;;;;;5052910;28;20475;-66
2021/09/27 03:43:26;;;;;;;15.13;13.77;;;18.40;99.90;;;;;;5042150;28;20420;-67
2021/09/27 03:46:36;;;;;;;17.33;15.83;;;18.50;99.90;;;;;;5031759;28;20564;-70
2021/09/27 03:49:22;;;;;;;16.53;14.83;;;18.50;99.90;;;;;;5023102;28;20429;-66
2021/09/27 03:51:52;;;;;;;16.97;15.23;;;18.40;99.90;;;;;;5032596;28;20406;-70
2021/09/27 03:54:31;;;;;;;16.90;15.40;;;18.40;99.90;;;;;;5032559;28;20443;-66
2021/09/27 03:57:19;;;;;;;17.10;15.50;;;18.40;99.90;;;;;;5031765;28;20409;-66
2021/09/27 03:59:54;;;;;;;17.60;15.90;;;18.40;99.90;;;;;;5032526;28;20408;-66
2021/09/27 04:02:47;;;;;;;16.17;14.77;;;18.40;99.90;;;;;;5036234;28;20400;-66
2021/09/27 04:05:21;;;;;;;15.70;13.70;;;18.40;99.90;;;;;;5051712;28;20391;-66
2021/09/27 04:07:53;;;;;;;14.87;13.30;;;18.40;99.90;;;;;;5052212;28;20800;-66
2021/09/27 04:10:32;;;;;;;15.43;14.13;;;18.40;99.90;;;;;;5052362;28;20489;-66
2021/09/27 04:13:52;;;;;;;14.40;13.20;;;18.30;99.90;;;;;;5051522;28;20759;-66
2021/09/27 04:16:36;;;;;;;16.37;14.87;;;18.30;99.90;;;;;;4951651;29;20548;-66
2021/09/27 04:19:22;;;;;;;13.70;12.50;;;18.30;99.90;;;;;;5043448;28;20413;-66
2021/09/27 04:21:55;;;;;;;13.87;12.67;;;18.20;99.90;;;;;;5049793;28;20916;-66
2021/09/27 04:24:23;;;;;;;17.07;15.50;;;18.10;99.90;;;;;;5032279;28;20455;-66
2021/09/27 04:27:22;;;;;;;16.63;14.97;;;18.10;99.90;;;;;;5032164;28;20483;-66
2021/09/27 04:30:09;;;;;;;13.60;12.33;;;18.20;99.90;;;;;;4988016;28;20429;-66
2021/09/27 04:32:53;;;;;;;13.57;12.00;;;18.10;99.90;;;;;;5032219;28;20416;-66
2021/09/27 04:35:41;;;;;;;14.20;12.80;;;18.10;99.90;;;;;;5014389;28;20492;-66
2021/09/27 04:38:08;;;;;;;14.33;12.83;;;18.10;99.90;;;;;;5031331;28;20463;-66
2021/09/27 04:41:02;;;;;;;15.97;14.37;;;18.20;99.90;;;;;;5032223;28;20405;-66
2021/09/27 04:43:49;;;;;;;14.00;12.47;;;18.20;99.90;;;;;;5049895;28;20517;-66
2021/09/27 04:46:41;;;;;;;15.90;14.60;;;18.00;99.90;;;;;;5051117;28;20471;-66
2021/09/27 04:49:34;;;;;;;14.93;13.63;;;17.90;99.90;;;;;;5051099;28;20423;-66
2021/09/27 04:52:29;;;;;;;13.80;12.60;;;17.90;99.90;;;;;;5051164;28;20484;-66
2021/09/27 04:55:31;;;;;;;13.67;12.27;;;17.90;99.90;;;;;;5051043;28;20440;-72
2021/09/27 04:58:12;;;;;;;13.23;12.10;;;17.90;99.90;;;;;;5051079;28;20404;-66
2021/09/27 05:00:44;;;;;;;13.80;12.50;;;17.80;99.90;;;;;;5033969;28;20423;-66
2021/09/27 05:03:36;;;;;;;14.30;12.90;;;17.80;99.90;;;;;;5049373;28;20423;-66
2021/09/27 05:06:23;;;;;;;13.67;12.47;;;17.80;99.90;;;;;;5050884;28;20415;-66
2021/09/27 05:09:23;;;;;;;13.97;12.67;;;17.90;99.90;;;;;;5031925;28;20404;-66
2021/09/27 05:12:17;;;;;;;14.30;12.87;;;18.00;99.90;;;;;;5031912;28;20401;-66
2021/09/27 05:15:04;;;;;;;13.03;11.60;;;18.00;99.90;;;;;;5031885;28;20477;-66
2021/09/27 05:17:55;;;;;;;14.33;13.10;;;18.10;99.90;;;;;;5031521;28;20415;-66
2021/09/27 05:20:56;;;;;;;13.37;12.17;;;18.20;99.90;;;;;;5013881;28;20437;-66
2021/09/27 05:23:50;;;;;;;15.30;14.03;;;18.20;99.90;;;;;;5053927;28;20423;-66
2021/09/27 05:26:39;;;;;;;13.10;11.90;;;18.30;99.90;;;;;;5054539;28;20516;-66
2021/09/27 05:29:14;;;;;;;13.23;11.80;;;18.30;99.90;;;;;;5054596;28;20491;-66
2021/09/27 05:32:05;;;;;;;13.40;12.00;;;18.30;99.90;;;;;;5043150;28;20804;-66
2021/09/27 05:34:44;;;;;;;13.13;11.83;;;18.30;99.90;;;;;;5042627;28;20471;-68
2021/09/27 05:37:32;;;;;;;14.40;13.00;;;18.30;99.90;;;;;;5039217;28;20412;-68
2021/09/27 05:40:17;;;;;;;15.07;13.77;;;18.40;99.90;;;;;;5043707;28;20436;-74
2021/09/27 05:43:06;;;;;;;15.03;13.63;;;18.40;99.90;;;;;;5037223;28;20396;-69
2021/09/27 05:46:04;;;;;;;13.47;12.20;;;18.40;99.90;;;;;;5054968;28;20456;-68
2021/09/27 05:48:33;;;;;;;14.67;13.30;;;18.50;99.90;;;;;;5046682;28;20498;-68
2021/09/27 05:51:13;;;;;;;13.87;12.57;;;18.60;99.90;;;;;;5036697;28;20429;-73
2021/09/27 05:54:01;;;;;;;13.40;12.10;;;18.70;99.90;;;;;;5017008;28;20444;-69
2021/09/27 05:56:34;;;;;;;13.47;12.30;;;18.70;99.90;;;;;;5035271;28;20428;-69
2021/09/27 05:59:14;;;;;;;13.50;12.30;;;18.70;99.90;;;;;;5033408;28;20508;-70
2021/09/27 06:01:40;;;;;;;14.37;12.87;;;18.80;99.90;;;;;;5034575;28;20532;-69
2021/09/27 06:04:15;;;;;;;12.70;11.60;;;19.00;99.90;;;;;;5019387;28;20523;-69
2021/09/27 06:07:09;;;;;;;12.73;11.57;;;19.00;99.90;;;;;;5054224;28;20165;-69
2021/09/27 06:09:49;;;;;;;14.17;12.67;;;19.20;99.90;;;;;;5025394;28;20459;-69
2021/09/27 06:12:45;;;;;;;12.77;11.60;;;19.20;99.90;;;;;;5035882;28;20915;-69
2021/09/27 06:15:14;;;;;;;14.30;11.10;;;19.10;99.90;;;;;;5019190;28;20519;-70
2021/09/27 06:17:58;;;;;;;12.90;11.60;;;19.10;99.90;;;;;;5054595;28;20440;-69
2021/09/27 06:20:23;;;;;;;11.97;10.97;;;19.10;99.90;;;;;;5042734;28;20417;-72
2021/09/27 06:23:15;;;;;;;14.23;12.03;;;19.10;99.90;;;;;;5044436;28;20436;-70
2021/09/27 06:26:05;;;;;;;13.27;11.90;;;19.00;99.90;;;;;;5053589;28;20170;-70
2021/09/27 06:28:35;;;;;;;11.97;10.97;;;19.00;99.90;;;;;;5054161;28;20461;-70
2021/09/27 06:31:13;;;;;;;13.40;12.13;;;19.00;99.90;;;;;;5053883;28;20483;-69
2021/09/27 06:33:42;;;;;;;13.27;11.97;;;19.00;99.90;;;;;;5053484;28;20470;-69
2021/09/27 06:36:12;;;;;;;13.00;11.77;;;19.00;99.90;;;;;;5053782;28;20412;-70
2021/09/27 06:38:39;;;;;;;13.33;12.13;;;19.00;99.90;;;;;;5054402;28;20391;-69
2021/09/27 06:41:09;;;;;;;14.47;13.07;;;19.00;99.90;;;;;;5040238;28;20423;-70
2021/09/27 06:43:35;;;;;;;14.03;12.73;;;19.00;99.90;;;;;;5034256;28;20749;-69
2021/09/27 06:46:01;;;;;;;13.20;11.90;;;19.00;99.90;;;;;;5033547;28;20503;-70
2021/09/27 06:48:27;;;;;;;11.37;10.33;;;19.00;99.90;;;;;;5034237;28;20420;-70
2021/09/27 06:50:54;;;;;;;15.40;14.17;;;19.00;99.90;;;;;;5037412;28;20248;-71
2021/09/27 06:53:21;;;;;;;11.80;10.60;;;19.00;99.90;;;;;;5038204;28;20839;-70
2021/09/27 06:55:47;;;;;;;13.90;12.67;;;19.00;99.90;;;;;;5049499;28;20482;-70
2021/09/27 06:58:14;;;;;;;12.13;11.23;;;19.00;99.90;;;;;;5032402;28;20997;-70
2021/09/27 07:00:41;;;;;;;12.40;11.37;;;19.00;99.90;;;;;;5033072;28;20437;-70
2021/09/27 07:03:07;;;;;;;11.60;10.60;;;19.10;99.90;;;;;;5038592;28;20187;-70
2021/09/27 07:05:33;;;;;;;14.07;12.80;;;19.10;99.90;;;;;;5045934;28;20417;-70
2021/09/27 07:08:00;;;;;;;11.30;10.33;;;19.10;99.90;;;;;;5041429;28;20231;-69
2021/09/27 07:10:27;;;;;;;14.03;13.03;;;19.00;99.90;;;;;;5050417;28;20496;-69
2021/09/27 07:12:53;;;;;;;13.60;12.37;;;19.00;99.90;;;;;;5033617;28;20467;-69
2021/09/27 07:15:20;;;;;;;12.17;10.90;;;19.00;99.90;;;;;;5032801;28;20417;-70
2021/09/27 07:17:46;;;;;;;13.60;12.50;;;19.00;99.90;;;;;;5032997;28;20712;-70
2021/09/27 07:20:17;;;;;;;13.20;12.00;;;19.10;99.90;;;;;;5032714;28;20409;-70
2021/09/27 07:22:43;;;;;;;13.20;12.00;;;19.10;99.90;;;;;;5036461;28;20409;-69
2021/09/27 07:25:10;;;;;;;11.33;10.53;;;19.10;99.90;;;;;;5039359;28;20415;-70
2021/09/27 07:27:36;;;;;;;13.83;12.57;;;19.10;99.90;;;;;;5046910;28;20432;-70
2021/09/27 07:30:04;;;;;;;13.70;12.50;;;19.20;99.90;;;;;;5037235;28;20424;-81
2021/09/27 07:32:30;;;;;;;10.57;9.67;;;19.20;99.90;;;;;;5045835;28;20182;-70
2021/09/27 07:34:56;;;;;;;12.80;11.80;;;19.20;99.90;;;;;;5025619;28;20467;-69
2021/09/27 07:37:21;;;;;;;12.60;11.50;;;19.30;99.90;;;;;;5045832;28;20178;-70
2021/09/27 07:39:47;;;;;;;12.83;11.77;;;19.20;99.90;;;;;;5032662;28;20182;-70
2021/09/27 07:42:13;;;;;;;12.30;11.20;;;19.20;99.90;;;;;;5031992;28;20186;-71
2021/09/27 07:44:39;;;;;;;12.63;11.10;;;19.20;99.90;;;;;;5045840;28;20185;-71
2021/09/27 07:47:05;;;;;;;12.63;11.63;;;19.10;99.90;;;;;;5062829;28;20220;-78
2021/09/27 07:49:31;;;;;;;12.67;11.57;;;19.20;99.90;;;;;;5055814;28;20431;-71
2021/09/27 07:51:57;;;;;;;11.97;11.00;;;19.20;99.90;;;;;;5052658;28;20405;-71
2021/09/27 07:54:24;;;;;;;12.13;11.03;;;19.30;99.90;;;;;;5051957;28;20337;-71
2021/09/27 07:56:50;;;;;;;12.10;10.90;;;19.20;99.90;;;;;;5052590;28;20404;-71
2021/09/27 07:59:16;;;;;;;11.33;10.43;;;19.20;99.90;;;;;;5051889;28;20503;-70
2021/09/27 08:01:42;;;;;;;10.83;9.83;;;19.20;99.90;;;;;;5052270;28;20966;-71
2021/09/27 08:04:09;;;;;;;11.43;10.43;;;19.20;99.90;;;;;;5050990;28;20232;-71
2021/09/27 08:06:36;;;;;;;11.90;11.00;;;19.10;99.90;;;;;;5071012;28;20451;-70
2021/09/27 08:09:03;;;;;;;10.60;9.60;;;19.30;99.90;;;;;;5062535;28;20416;-71
2021/09/27 08:11:29;;;;;;;12.10;11.00;;;19.40;99.90;;;;;;5070285;28;20411;-74
2021/09/27 08:13:54;;;;;;;10.57;9.57;;;19.40;99.90;;;;;;5052179;28;20471;-70
2021/09/27 08:16:20;;;;;;;11.70;10.60;;;19.40;99.90;;;;;;5051382;28;20212;-71
2021/09/27 08:18:46;;;;;;;11.37;10.47;;;19.50;99.90;;;;;;5052235;28;20184;-73
2021/09/27 08:21:15;;;;;;;12.13;11.07;;;19.40;99.90;;;;;;5070893;28;20411;-71
2021/09/27 08:23:41;;;;;;;10.27;9.47;;;19.50;99.90;;;;;;5069713;28;20185;-71
2021/09/27 08:26:07;;;;;;;10.30;9.40;;;19.60;99.90;;;;;;5066141;28;20411;-71
2021/09/27 08:28:36;;;;;;;11.87;10.90;;;19.50;99.90;;;;;;5058359;28;20180;-71
2021/09/27 08:31:12;;;;;;;11.80;10.70;;;19.60;99.90;;;;;;5072105;28;20773;-71
2021/09/27 08:33:38;;;;;;;11.57;10.67;;;19.70;99.90;;;;;;5053754;28;20451;-71
2021/09/27 08:36:08;;;;;;;11.80;11.00;;;19.80;99.90;;;;;;5053545;28;20511;-89
2021/09/27 08:38:37;;;;;;;10.67;9.77;;;19.90;99.90;;;;;;5065937;28;20518;-71
2021/09/27 08:41:27;;;;;;;10.77;9.80;;;20.00;99.90;;;;;;5056219;28;20447;-70
2021/09/27 08:44:08;;;;;;;12.70;11.60;;;20.10;99.90;;;;;;5052627;28;20433;-71
2021/09/27 08:46:48;;;;;;;11.83;10.83;;;19.80;99.90;;;;;;5040842;28;20555;-70
2021/09/27 08:49:54;;;;;;;10.97;10.10;;;19.80;99.90;;;;;;5014259;28;20432;-71
2021/09/27 08:52:23;;;;;;;10.67;9.77;;;19.90;99.90;;;;;;5044755;28;20425;-71
2021/09/27 08:54:51;;;;;;;9.27;8.57;;;20.00;99.90;;;;;;5052271;28;20958;-71
2021/09/27 08:57:39;;;;;;;11.53;10.53;;;20.20;99.90;;;;;;5037247;28;20412;-71
2021/09/27 09:00:23;;;;;;;12.27;11.37;;;20.20;99.90;;;;;;5056257;28;20469;-71
2021/09/27 09:03:01;;;;;;;11.37;10.37;;;20.20;99.90;;;;;;5039030;28;20490;-71
2021/09/27 09:05:29;;;;;;;10.50;8.80;;;20.20;99.90;;;;;;5018087;28;20424;-70
2021/09/27 09:08:08;;;;;;;10.07;9.17;;;20.40;99.90;;;;;;5036196;28;20424;-70
2021/09/27 09:11:03;;;;;;;11.43;10.53;;;20.70;99.90;;;;;;5036221;28;20413;-71
2021/09/27 09:13:43;;;;;;;10.43;9.63;;;20.80;99.90;;;;;;5032578;28;20469;-71
2021/09/27 09:16:15;;;;;;;10.70;9.87;;;20.90;99.90;;;;;;5035367;28;20409;-71
2021/09/27 09:18:45;;;;;;;10.07;9.27;;;21.00;99.90;;;;;;5046995;28;20452;-70
2021/09/27 09:21:26;;;;;;;8.30;7.70;;;21.10;99.90;;;;;;5049134;28;20555;-85
2021/09/27 09:23:55;;;;;;;9.27;8.47;;;21.30;99.90;;;;;;5055649;28;20400;-70
2021/09/27 09:26:39;;;;;;;9.43;8.63;;;21.30;99.90;;;;;;5054904;28;20531;-70
2021/09/27 09:29:08;;;;;;;8.47;7.77;;;21.40;99.90;;;;;;5053602;28;20431;-70
2021/09/27 09:31:44;;;;;;;8.90;8.13;;;21.70;99.90;;;;;;5054544;28;20492;-70
2021/09/27 09:34:22;;;;;;;8.60;8.00;;;22.00;99.90;;;;;;5054815;28;20534;-84
2021/09/27 09:36:50;;;;;;;7.33;6.83;;;22.20;99.90;;;;;;5055366;28;20415;-70
2021/09/27 09:39:45;;;;;;;7.37;6.87;;;22.50;99.90;;;;;;5054484;28;20420;-70
2021/09/27 09:42:17;;;;;;;8.97;8.47;;;22.80;99.90;;;;;;5053718;28;20424;-86
2021/09/27 09:44:48;;;;;;;8.27;7.80;;;22.90;99.90;;;;;;5053431;28;20467;-70
2021/09/27 09:47:28;;;;;;;6.77;6.37;;;22.90;99.90;;;;;;5054168;28;20506;-71
2021/09/27 09:49:57;;;;;;;7.27;6.73;;;23.10;99.30;;;;;;5054579;28;20688;-70
2021/09/27 09:52:47;;;;;;;6.83;6.43;;;23.00;98.40;;;;;;5054456;28;20411;-70
2021/09/27 09:55:28;;;;;;;9.00;8.50;;;23.20;99.90;;;;;;5023558;28;20468;-85
2021/09/27 09:58:02;;;;;;;8.07;7.47;;;23.50;99.70;;;;;;5035005;28;20402;-70
2021/09/27 10:00:49;;;;;;;8.83;8.23;;;23.20;97.90;;;;;;5034198;28;20405;-69
2021/09/27 10:03:19;;;;;;;8.57;8.17;;;23.30;98.90;;;;;;5034089;28;20430;-72
2021/09/27 10:05:54;;;;;;;7.37;6.87;;;23.50;98.60;;;;;;5035237;28;20427;-72
2021/09/27 10:08:24;;;;;;;5.70;5.30;;;23.60;98.00;;;;;;5033755;28;20400;-72
2021/09/27 10:11:03;;;;;;;9.80;9.13;;;23.60;98.20;;;;;;5034827;28;20408;-71
2021/09/27 10:13:59;;;;;;;7.57;7.10;;;23.70;97.50;;;;;;5037599;28;20944;-72
2021/09/27 10:16:27;;;;;;;6.90;6.40;;;23.50;97.40;;;;;;5012610;28;20776;-73
2021/09/27 10:18:53;;;;;;;6.17;5.77;;;23.60;97.90;;;;;;5036256;28;20421;-72
2021/09/27 10:21:18;;;;;;;6.10;5.80;;;23.60;97.30;;;;;;5053518;28;20396;-72
2021/09/27 10:23:46;;;;;;;5.40;5.03;;;23.60;97.40;;;;;;5054577;28;20182;-71
2021/09/27 10:26:15;;;;;;;7.67;7.07;;;23.70;98.80;;;;;;5053951;28;20174;-77
2021/09/27 10:28:41;;;;;;;8.27;7.57;;;23.80;97.00;;;;;;5036469;28;20419;-72
2021/09/27 10:31:10;;;;;;;8.53;8.03;;;23.80;97.20;;;;;;5053696;28;20470;-73
2021/09/27 10:33:49;;;;;;;5.60;5.30;;;23.70;96.90;;;;;;5052262;28;20521;-73
2021/09/27 10:36:20;;;;;;;9.50;8.90;;;23.90;98.60;;;;;;5033237;28;20914;-77
2021/09/27 10:38:58;;;;;;;8.00;7.57;;;24.10;98.60;;;;;;5016639;28;20456;-72
2021/09/27 10:41:33;;;;;;;8.10;7.60;;;24.20;97.80;;;;;;5033251;28;20413;-72
2021/09/27 10:44:04;;;;;;;7.53;7.13;;;24.20;97.40;;;;;;5016273;28;20413;-71
2021/09/27 10:46:36;;;;;;;6.87;6.43;;;24.20;96.60;;;;;;5032922;28;20452;-72
2021/09/27 10:49:05;;;;;;;6.80;6.40;;;24.20;96.40;;;;;;5035349;28;20856;-71
2021/09/27 10:51:38;;;;;;;6.33;5.83;;;24.10;96.00;;;;;;5052828;28;20420;-71
2021/09/27 10:54:24;;;;;;;12.20;11.10;;;23.90;96.70;;;;;;5053603;28;20890;-71
2021/09/27 10:56:56;;;;;;;6.30;5.90;;;23.90;96.40;;;;;;5049386;28;20464;-69
2021/09/27 10:59:34;;;;;;;6.30;5.90;;;23.70;97.10;;;;;;5033042;28;20421;-69
2021/09/27 11:02:06;;;;;;;5.73;5.30;;;23.60;96.50;;;;;;5033774;28;20436;-70
2021/09/27 11:04:41;;;;;;;5.77;5.27;;;23.60;96.60;;;;;;5037540;28;20420;-70
2021/09/27 11:07:26;;;;;;;6.10;5.60;;;23.40;97.10;;;;;;5038695;28;20499;-70
2021/09/27 11:09:54;;;;;;;5.77;5.43;;;23.30;96.60;;;;;;5033292;28;20463;-70
2021/09/27 11:12:41;;;;;;;6.20;5.50;;;23.20;97.30;;;;;;5032857;28;20414;-71
2021/09/27 11:15:22;;;;;;;6.63;6.13;;;23.30;98.00;;;;;;5041945;28;20471;-72
2021/09/27 11:18:12;;;;;;;7.80;6.20;;;23.30;97.40;;;;;;5043814;28;20771;-72
2021/09/27 11:20:50;;;;;;;6.03;5.63;;;23.20;97.30;;;;;;4999882;28;20420;-71
2021/09/27 11:23:22;;;;;;;6.17;5.77;;;23.10;97.40;;;;;;5032793;28;20835;-72
2021/09/27 11:26:04;;;;;;;6.00;5.60;;;22.80;97.60;;;;;;5048629;28;20489;-71
2021/09/27 11:28:53;;;;;;;5.87;5.23;;;22.70;97.80;;;;;;5035081;28;20812;-71
2021/09/27 11:31:21;;;;;;;5.33;5.00;;;22.30;98.70;;;;;;5041194;28;20456;-71
2021/09/27 11:33:59;;;;;;;7.57;5.93;;;22.20;98.50;;;;;;5034874;28;20461;-71
2021/09/27 11:36:34;;;;;;;6.70;6.10;;;22.20;99.40;;;;;;5032733;28;20400;-71
2021/09/27 11:39:05;;;;;;;6.20;5.70;;;22.30;99.30;;;;;;5035415;28;20746;-71
2021/09/27 11:41:35;;;;;;;6.47;5.97;;;22.30;99.50;;;;;;5051849;28;20401;-69
2021/09/27 11:44:13;;;;;;;6.53;6.10;;;22.30;99.40;;;;;;5039800;28;20768;-70
2021/09/27 11:46:43;;;;;;;6.27;5.67;;;22.20;99.30;;;;;;5051812;28;20468;-71
2021/09/27 11:49:23;;;;;;;6.97;6.57;;;22.20;99.60;;;;;;5052642;28;20440;-71
2021/09/27 11:52:19;;;;;;;7.70;7.10;;;22.00;99.80;;;;;;5035010;28;20412;-71
2021/09/27 11:55:03;;;;;;;6.50;6.00;;;21.90;99.90;;;;;;5011378;28;20472;-71
2021/09/27 11:57:40;;;;;;;7.93;7.27;;;21.90;99.90;;;;;;5052092;28;20395;-71
2021/09/27 12:00:14;;;;;;;5.43;5.07;;;21.80;99.90;;;;;;5035216;28;20403;-70
2021/09/27 12:02:48;;;;;;;5.87;5.57;;;21.80;99.90;;;;;;5052350;28;20384;-71
2021/09/27 12:05:37;;;;;;;5.87;5.47;;;21.80;99.90;;;;;;5052667;28;20884;-71
2021/09/27 12:08:28;;;;;;;5.73;5.30;;;21.70;99.90;;;;;;5052906;28;20373;-71
2021/09/27 12:11:01;;;;;;;5.80;5.30;;;21.70;99.90;;;;;;5053056;28;20388;-71
2021/09/27 12:13:39;;;;;;;6.60;6.20;;;21.80;99.90;;;;;;5052397;28;20790;-71
2021/09/27 12:16:05;;;;;;;6.37;5.87;;;21.80;99.90;;;;;;5052799;28;20475;-70
2021/09/27 12:18:48;;;;;;;6.00;5.60;;;21.70;99.90;;;;;;5034374;28;20404;-70
2021/09/27 12:21:37;;;;;;;6.23;5.77;;;21.70;99.90;;;;;;5052694;28;20389;-71
2021/09/27 12:24:13;;;;;;;6.33;5.93;;;21.50;99.90;;;;;;5052783;28;20538;-71
2021/09/27 12:27:07;;;;;;;5.50;5.10;;;21.40;99.90;;;;;;5051832;28;20723;-71
2021/09/27 12:29:35;;;;;;;6.10;5.00;;;21.30;99.90;;;;;;5051712;28;20426;-71
2021/09/27 12:32:07;;;;;;;5.30;4.90;;;21.30;99.90;;;;;;5051667;28;20491;-71
2021/09/27 12:34:43;;;;;;;5.20;4.87;;;21.20;99.90;;;;;;5051684;28;20791;-71
2021/09/27 12:37:10;;;;;;;6.97;6.60;;;21.20;99.90;;;;;;5052251;28;20817;-71
2021/09/27 12:39:36;;;;;;;4.97;4.67;;;21.20;99.90;;;;;;5051089;28;20551;-71
2021/09/27 12:42:06;;;;;;;5.93;5.57;;;21.30;99.90;;;;;;5051864;28;21018;-71
2021/09/27 12:44:37;;;;;;;5.00;4.60;;;21.30;99.90;;;;;;5051488;28;20840;-71
2021/09/27 12:47:07;;;;;;;5.30;4.80;;;21.30;99.90;;;;;;5052623;28;20506;-71
2021/09/27 12:49:43;;;;;;;5.77;5.27;;;21.40;99.90;;;;;;5051509;28;20444;-71
2021/09/27 12:52:16;;;;;;;5.60;5.20;;;21.20;99.90;;;;;;5052273;28;20420;-71
2021/09/27 12:54:51;;;;;;;5.20;4.90;;;21.20;99.90;;;;;;5051602;28;20505;-71
2021/09/27 12:57:39;;;;;;;6.83;6.43;;;21.30;99.90;;;;;;5052244;28;20499;-71
2021/09/27 13:00:30;;;;;;;5.33;4.93;;;21.30;99.90;;;;;;5052145;28;20430;-71
2021/09/27 13:02:57;;;;;;;5.20;4.80;;;21.40;99.90;;;;;;5052246;28;20432;-71
2021/09/27 13:05:26;;;;;;;5.50;5.20;;;21.30;99.90;;;;;;5051658;28;20404;-71
2021/09/27 13:07:58;;;;;;;7.77;7.30;;;21.40;99.90;;;;;;5051956;28;20412;-71
2021/09/27 13:10:28;;;;;;;4.73;4.40;;;21.30;99.90;;;;;;5051208;28;20420;-71
2021/09/27 13:13:14;;;;;;;6.93;6.43;;;21.20;99.90;;;;;;5051904;28;20389;-71
2021/09/27 13:15:51;;;;;;;4.67;4.27;;;21.10;99.90;;;;;;5033666;28;20932;-71
2021/09/27 13:18:32;;;;;;;7.60;7.20;;;21.30;99.90;;;;;;5052350;28;20445;-71
2021/09/27 13:21:13;;;;;;;4.60;4.30;;;21.20;99.90;;;;;;5052036;28;20505;-71
2021/09/27 13:23:42;;;;;;;4.70;4.40;;;21.20;99.90;;;;;;5051431;28;20740;-71